Pagrindinis puslapis
METAR-TAF:

METAR-TAF

Oro uostai :

Wharton, Teksasas, Jungtinės Amerikos Valstijos

platuma: 29-15-15N, ilguma: 096-09-15W, Aukštis: 31 m

Dabartinis oras

Ataskaita buvo paskelbta 57 minutes, ne 06:40 UTC
Ramus vėjas
Temperatūra 20°C
Drėgmė 94%
Slėgis 1013 hPa
Matomumas: 16.1 km
Giedras dangus

METAR: KARM 270640Z AUTO 00000KT 10SM CLR 20/19 A2992 RMK AO2 T02030191

Laikas: 02:37 (07:37 UTC)


TAF: trūkstamas

Orai ataskaitas ir orų prognozės (METAR, TAF).

turimą stotys yra geltonos ir raudonos taškus žemėlapyje.

Perkelti pele per norėdami pamatyti stoties vardą.

Tada spustelėkite, norėdami matyti oro stebėjimo ir prognozės.

Norėdami pakeisti žemėlapį: spustelėkite ant žalios mygtukų su juodo kryžiaus žemyn,; žalią mygtuką su brūkšneliu, jei norite nutolinti; arba žalių rodyklių gretimoms žemėlapius.


METAR-TAF: